CheckWX is a tool to help pilots better visualize weather data.  It is not intended as a substitute for an official pre-flight weather briefing.

08:00:36 UTC

ENKR TAF
Kirkenes , Høybuktmoen Airport
Kirkenes, Norway
TAF ENKR 190500Z 1906/1915 35012KT 9999 FEW010 BKN030

Mar-19@
06:00 UTC

Mar-19 @ 06:00 UTC

Mar-19@
15:00 UTC

Mar-19 @ 15:00 UTC

TAF ENKR 190500Z 1906/1915 35012KT 9999 FEW010 BKN030
Wind
  • 350° at 12 KTS
Cloud Levels
  • Few at 1,000' AGL
  • Broken at 3,000' AGL